EGAA

Belfast International Airport

Belfast, United Kingdom
METAR EGAA 190620Z 07005KT 8000 BKN036 05/04 Q1003
Observed Flight Rules
Jan-19 @ 06:20 UTC (34 minutes ago) Marginal Visual Flight Rules
Wind Visibility Clouds
70° at 5 knots 7,998 meters
  • Broken at 3,600' AGL
Temperatures Readings
Current 5°C / 41°F
Dewpoint 4°C / 39°F
Humidity 93%
Altimeter 29.62" Hg
Pressure 1002.92 hPa
Elevation 81
METAR EGAA 190620Z 07005KT 8000 BKN036 05/04 Q1003
Observed Flight Rules
Jan-19 @ 06:20 UTC
(34 minutes ago)
MVFR
Wind Visibility
70° at 5 knots 7,998 meters
Clouds
  • Broken at 3,600' AGL
Temperature Dewpoint
5°C / 41°F 4°C / 39°F
Humidity Altimeter Pressure
93% 29.62" Hg 1002.92 hPa